createdAt,value
2022-10-23T00:01:42.595Z,15.20
2022-10-23T00:04:19.426Z,15.20
2022-10-23T00:06:48.145Z,15.20
2022-10-23T00:09:18.259Z,15.10
2022-10-23T00:11:47.993Z,15.10
2022-10-23T00:14:17.393Z,15.10
2022-10-23T00:16:45.357Z,15.10
2022-10-23T00:19:12.838Z,15.10
2022-10-23T00:21:40.620Z,15.10
2022-10-23T00:26:39.391Z,15.00
2022-10-23T00:29:07.978Z,15.00
2022-10-23T00:31:35.539Z,15.00
2022-10-23T00:34:04.152Z,14.90
2022-10-23T00:36:31.573Z,14.90
2022-10-23T00:38:58.993Z,14.90
2022-10-23T00:41:28.882Z,14.90
2022-10-23T00:44:01.676Z,14.90
2022-10-23T00:46:29.625Z,14.90
2022-10-23T00:48:58.288Z,14.80
2022-10-23T00:51:31.492Z,14.80
2022-10-23T00:54:22.780Z,14.80
2022-10-23T00:56:48.740Z,14.80
2022-10-23T00:59:16.263Z,14.80
2022-10-23T01:01:43.852Z,14.80
2022-10-23T01:04:11.757Z,14.80
2022-10-23T01:06:45.628Z,14.80
2022-10-23T01:09:17.867Z,14.80
2022-10-23T01:11:59.883Z,14.80
2022-10-23T01:15:06.609Z,14.80
2022-10-23T01:17:52.044Z,14.80
2022-10-23T01:20:40.815Z,14.80
2022-10-23T01:23:31.733Z,14.80
2022-10-23T01:26:26.935Z,14.80
2022-10-23T01:29:23.096Z,14.80
2022-10-23T01:32:12.145Z,14.80
2022-10-23T01:34:53.005Z,14.80
2022-10-23T01:37:32.122Z,14.70
2022-10-23T01:40:03.696Z,14.70
2022-10-23T01:42:39.580Z,14.70
2022-10-23T01:45:21.960Z,14.70
2022-10-23T01:47:50.741Z,14.70
2022-10-23T01:50:20.391Z,14.70
2022-10-23T01:52:47.955Z,14.70
2022-10-23T01:55:16.669Z,14.70
2022-10-23T01:57:46.000Z,14.70
2022-10-23T02:00:16.117Z,14.70
2022-10-23T02:02:45.206Z,14.70
2022-10-23T02:05:17.321Z,14.70
2022-10-23T02:07:45.486Z,14.80
2022-10-23T02:10:14.008Z,14.80
2022-10-23T02:13:02.842Z,14.80
2022-10-23T02:15:47.869Z,14.80
2022-10-23T02:18:20.946Z,14.80
2022-10-23T02:21:01.080Z,14.80
2022-10-23T02:23:38.018Z,14.80
2022-10-23T02:26:10.644Z,14.80
2022-10-23T02:28:43.356Z,14.80
2022-10-23T02:31:14.467Z,14.80
2022-10-23T02:33:42.731Z,14.80
2022-10-23T02:36:10.274Z,14.80
2022-10-23T02:38:42.766Z,14.80
2022-10-23T02:41:37.958Z,14.80
2022-10-23T02:44:26.497Z,14.80
2022-10-23T02:47:00.584Z,14.80
2022-10-23T02:49:44.520Z,14.80
2022-10-23T02:52:45.235Z,14.90
2022-10-23T02:55:46.429Z,14.90
2022-10-23T02:58:20.442Z,14.90
2022-10-23T03:00:54.835Z,14.90
2022-10-23T03:03:33.949Z,15.00
2022-10-23T03:06:01.613Z,14.90
2022-10-23T03:08:29.099Z,14.90
2022-10-23T03:10:56.686Z,14.90
2022-10-23T03:13:24.198Z,14.90
2022-10-23T03:15:51.603Z,14.90
2022-10-23T03:18:19.041Z,14.90
2022-10-23T03:20:46.498Z,14.90
2022-10-23T03:23:14.165Z,14.90
2022-10-23T03:25:41.635Z,14.90
2022-10-23T03:28:08.965Z,14.90
2022-10-23T03:30:36.449Z,14.80
2022-10-23T03:33:03.920Z,14.80
2022-10-23T03:35:31.350Z,14.80
2022-10-23T03:37:58.717Z,14.80
2022-10-23T03:40:26.082Z,14.80
2022-10-23T03:42:53.422Z,14.80
2022-10-23T03:45:20.801Z,14.80
2022-10-23T03:47:48.728Z,14.80
2022-10-23T03:50:16.145Z,14.70
2022-10-23T03:52:44.386Z,14.70
2022-10-23T03:55:12.402Z,14.80
2022-10-23T03:57:39.864Z,14.80
2022-10-23T04:00:08.816Z,14.70
2022-10-23T04:02:36.342Z,14.80
2022-10-23T04:05:03.845Z,14.70
2022-10-23T04:07:31.347Z,14.80
2022-10-23T04:09:58.739Z,14.70
2022-10-23T04:12:26.117Z,14.70
2022-10-23T04:14:53.455Z,14.70
2022-10-23T04:17:20.883Z,14.70
2022-10-23T04:19:48.314Z,14.70
2022-10-23T04:22:15.718Z,14.70
2022-10-23T04:24:46.657Z,14.70
2022-10-23T04:27:14.132Z,14.70
2022-10-23T04:29:41.507Z,14.70
2022-10-23T04:32:08.896Z,14.70
2022-10-23T04:34:36.323Z,14.70
2022-10-23T04:37:03.681Z,14.70
2022-10-23T04:39:31.168Z,14.70
2022-10-23T04:41:58.577Z,14.70
2022-10-23T04:44:26.015Z,14.70
2022-10-23T04:46:53.404Z,14.70
2022-10-23T04:49:20.910Z,14.70
2022-10-23T04:51:48.255Z,14.80
2022-10-23T04:54:15.749Z,14.80
2022-10-23T04:56:43.157Z,14.80
2022-10-23T04:59:10.629Z,14.80
2022-10-23T05:01:38.241Z,14.80
2022-10-23T05:04:05.818Z,14.90
2022-10-23T05:06:33.251Z,14.80
2022-10-23T05:09:00.655Z,14.90
2022-10-23T05:11:28.031Z,14.90
2022-10-23T05:13:55.466Z,14.90
2022-10-23T05:16:43.071Z,14.90
2022-10-23T05:19:13.845Z,14.90
2022-10-23T05:21:41.804Z,15.00
2022-10-23T05:24:10.683Z,14.90
2022-10-23T05:26:38.198Z,15.00
2022-10-23T05:29:05.637Z,15.00
2022-10-23T05:31:34.786Z,14.90
2022-10-23T05:34:02.290Z,15.00
2022-10-23T05:36:29.762Z,15.00
2022-10-23T05:38:57.748Z,15.00
2022-10-23T05:41:25.259Z,15.00
2022-10-23T05:43:54.200Z,15.00
2022-10-23T05:46:23.177Z,15.00
2022-10-23T05:48:51.995Z,15.00
2022-10-23T05:51:22.527Z,15.00
2022-10-23T05:53:50.255Z,15.10
2022-10-23T05:56:18.022Z,15.20
2022-10-23T05:58:46.306Z,15.10
2022-10-23T06:01:14.970Z,15.10
2022-10-23T06:03:42.628Z,15.10
2022-10-23T06:06:10.070Z,15.10
2022-10-23T06:08:37.511Z,15.10
2022-10-23T06:11:14.491Z,15.10
2022-10-23T06:13:46.224Z,15.10
2022-10-23T06:16:20.397Z,15.10
2022-10-23T06:18:48.421Z,15.10
2022-10-23T06:21:16.358Z,15.10
2022-10-23T06:23:45.409Z,15.10
2022-10-23T06:26:15.704Z,15.10
2022-10-23T06:28:43.544Z,15.10
2022-10-23T06:31:13.645Z,15.10
2022-10-23T06:33:41.545Z,15.10
2022-10-23T06:36:10.737Z,15.00
2022-10-23T06:38:40.577Z,15.00
2022-10-23T06:41:13.404Z,15.10
2022-10-23T06:43:41.201Z,15.10
2022-10-23T06:46:09.926Z,15.10
2022-10-23T06:48:37.376Z,15.10
2022-10-23T06:51:07.307Z,15.10
2022-10-23T06:53:35.954Z,15.10
2022-10-23T06:56:05.292Z,15.10
2022-10-23T06:58:34.019Z,15.00
2022-10-23T07:01:03.376Z,15.00
2022-10-23T07:03:31.243Z,14.90
2022-10-23T07:06:07.225Z,14.90
2022-10-23T07:08:34.663Z,14.90
2022-10-23T07:11:06.889Z,14.90
2022-10-23T07:13:35.334Z,14.80
2022-10-23T07:16:17.914Z,14.80
2022-10-23T07:18:46.358Z,14.80
2022-10-23T07:21:13.806Z,14.80
2022-10-23T07:23:41.220Z,14.80
2022-10-23T07:26:15.216Z,14.90
2022-10-23T07:28:44.898Z,14.90
2022-10-23T07:31:13.105Z,14.90
2022-10-23T07:33:40.855Z,14.90
2022-10-23T07:36:09.503Z,14.90
2022-10-23T07:38:36.900Z,15.00
2022-10-23T07:41:06.807Z,15.00
2022-10-23T07:43:36.758Z,14.90
2022-10-23T07:46:04.623Z,14.90
2022-10-23T07:48:32.013Z,15.00
2022-10-23T07:51:08.529Z,15.00
2022-10-23T07:53:36.427Z,15.00
2022-10-23T07:56:26.212Z,15.00
2022-10-23T07:58:54.159Z,15.00
2022-10-23T08:01:31.661Z,15.00
2022-10-23T08:03:59.706Z,15.00
2022-10-23T08:06:27.438Z,15.00
2022-10-23T08:08:55.004Z,15.00
2022-10-23T08:11:27.202Z,15.00
2022-10-23T08:13:58.461Z,15.00
2022-10-23T08:16:26.113Z,15.10
2022-10-23T08:18:53.510Z,15.00
2022-10-23T08:21:21.000Z,15.10
2022-10-23T08:23:49.078Z,15.10
2022-10-23T08:26:16.520Z,15.10
2022-10-23T08:28:43.890Z,15.10
2022-10-23T08:31:14.160Z,15.20
2022-10-23T08:33:41.761Z,15.10
2022-10-23T08:36:20.926Z,15.20
2022-10-23T08:38:49.002Z,15.20
2022-10-23T08:41:30.517Z,15.20
2022-10-23T08:44:03.527Z,15.20
2022-10-23T08:46:35.995Z,15.20
2022-10-23T08:49:32.387Z,15.20
2022-10-23T08:52:02.871Z,15.20
2022-10-23T08:54:49.006Z,15.20
2022-10-23T08:57:17.935Z,15.20
2022-10-23T08:59:58.896Z,15.20
2022-10-23T09:02:27.793Z,15.20
2022-10-23T09:04:57.300Z,15.20
2022-10-23T09:07:37.887Z,15.20
2022-10-23T09:10:23.899Z,15.20
2022-10-23T09:12:51.412Z,15.20
2022-10-23T09:15:31.461Z,15.20
2022-10-23T09:18:12.289Z,15.20
2022-10-23T09:20:41.666Z,15.10
2022-10-23T09:23:18.320Z,15.10
2022-10-23T09:25:47.988Z,15.10
2022-10-23T09:28:26.213Z,15.10
2022-10-23T09:30:53.847Z,15.10
2022-10-23T09:33:24.450Z,15.20
2022-10-23T09:35:58.476Z,15.20
2022-10-23T09:38:50.671Z,15.20
2022-10-23T09:41:39.342Z,15.20
2022-10-23T09:44:22.021Z,15.20
2022-10-23T09:46:58.754Z,15.30
2022-10-23T09:49:28.230Z,15.30
2022-10-23T09:52:12.363Z,15.30
2022-10-23T09:54:53.019Z,15.40
2022-10-23T09:57:39.722Z,15.50
2022-10-23T10:00:22.546Z,15.60
2022-10-23T10:03:05.823Z,15.60
2022-10-23T10:05:38.298Z,15.60
2022-10-23T10:08:13.649Z,15.60
2022-10-23T10:11:19.504Z,15.60
2022-10-23T10:13:54.332Z,15.50
2022-10-23T10:16:46.454Z,15.40
2022-10-23T10:20:02.375Z,15.40
2022-10-23T10:22:56.089Z,15.50
2022-10-23T10:25:34.489Z,15.50
2022-10-23T10:28:28.938Z,15.50
2022-10-23T10:31:18.352Z,15.60
2022-10-23T10:34:06.386Z,15.60
2022-10-23T10:36:48.534Z,15.50
2022-10-23T10:39:53.092Z,15.50
2022-10-23T10:42:55.613Z,15.50
2022-10-23T10:45:30.188Z,15.60
2022-10-23T10:48:09.356Z,15.60
2022-10-23T10:51:03.745Z,15.60
2022-10-23T10:53:43.038Z,15.60
2022-10-23T10:56:16.695Z,15.60
2022-10-23T10:58:58.082Z,15.60
2022-10-23T11:02:02.330Z,15.60
2022-10-23T11:04:45.954Z,15.70
2022-10-23T11:07:18.942Z,15.70
2022-10-23T11:09:46.779Z,15.80
2022-10-23T11:12:23.872Z,16.00
2022-10-23T11:14:52.152Z,16.10
2022-10-23T11:17:37.216Z,16.30
2022-10-23T11:20:27.627Z,16.40
2022-10-23T11:23:16.801Z,16.40
2022-10-23T11:26:22.184Z,16.30
2022-10-23T11:29:10.585Z,16.30
2022-10-23T11:32:24.977Z,16.40
2022-10-23T11:35:11.213Z,16.50
2022-10-23T11:37:38.625Z,16.50
2022-10-23T11:40:08.764Z,16.50
2022-10-23T11:42:39.136Z,16.40
2022-10-23T11:45:45.614Z,16.40
2022-10-23T11:48:44.892Z,16.40
2022-10-23T11:51:35.299Z,16.50
2022-10-23T11:54:07.529Z,16.60
2022-10-23T11:56:35.103Z,16.60
2022-10-23T11:59:33.249Z,16.60
2022-10-23T12:02:03.858Z,16.70
2022-10-23T12:04:47.328Z,16.60
2022-10-23T12:07:23.000Z,16.70
2022-10-23T12:10:00.088Z,16.70
2022-10-23T12:12:40.995Z,16.80
2022-10-23T12:15:18.858Z,17.00
2022-10-23T12:17:47.604Z,17.30
2022-10-23T12:20:29.370Z,17.60
2022-10-23T12:23:18.653Z,17.60
2022-10-23T12:26:33.143Z,17.50
2022-10-23T12:29:09.557Z,17.30
2022-10-23T12:31:57.615Z,17.30
2022-10-23T12:34:42.945Z,17.30
2022-10-23T12:37:36.431Z,17.50
2022-10-23T12:40:09.658Z,17.90
2022-10-23T12:42:38.036Z,18.50
2022-10-23T12:45:27.026Z,19.10
2022-10-23T12:47:54.730Z,19.60
2022-10-23T12:50:27.906Z,19.20
2022-10-23T12:53:01.453Z,18.70
2022-10-23T12:55:53.046Z,18.50
2022-10-23T12:58:25.914Z,18.50
2022-10-23T13:00:59.370Z,18.40
2022-10-23T13:03:30.248Z,18.40
2022-10-23T13:05:59.931Z,18.50
2022-10-23T13:08:34.062Z,18.70
2022-10-23T13:11:02.045Z,19.00
2022-10-23T13:13:29.503Z,19.00
2022-10-23T13:15:57.034Z,19.40
2022-10-23T13:18:24.361Z,19.90
2022-10-23T13:20:51.769Z,19.90
2022-10-23T13:23:31.392Z,19.70
2022-10-23T13:26:05.726Z,19.40
2022-10-23T13:28:35.055Z,18.90
2022-10-23T13:31:12.295Z,18.70
2022-10-23T13:33:44.372Z,18.80
2022-10-23T13:36:14.803Z,19.10
2022-10-23T13:38:44.798Z,19.10
2022-10-23T13:41:18.132Z,19.00
2022-10-23T13:43:47.963Z,18.80
2022-10-23T13:46:20.889Z,18.60
2022-10-23T13:48:48.553Z,18.60
2022-10-23T13:51:30.325Z,18.60
2022-10-23T13:53:57.972Z,18.40
2022-10-23T13:56:27.219Z,18.40
2022-10-23T13:58:54.642Z,18.40
2022-10-23T14:01:28.668Z,18.30
2022-10-23T14:03:57.558Z,18.20
2022-10-23T14:06:25.505Z,18.20
2022-10-23T14:08:52.925Z,18.20
2022-10-23T14:11:21.148Z,18.20
2022-10-23T14:13:49.219Z,18.20
2022-10-23T14:16:18.181Z,18.30
2022-10-23T14:18:45.677Z,18.20
2022-10-23T14:21:15.525Z,18.20
2022-10-23T14:23:42.969Z,18.20
2022-10-23T14:26:13.339Z,18.20
2022-10-23T14:28:41.022Z,18.30
2022-10-23T14:31:16.703Z,18.30
2022-10-23T14:33:45.416Z,18.30
2022-10-23T14:36:13.467Z,18.30
2022-10-23T14:38:40.971Z,18.30
2022-10-23T14:41:13.084Z,18.30
2022-10-23T14:43:40.820Z,18.30
2022-10-23T14:46:19.300Z,18.30
2022-10-23T14:48:50.967Z,18.30
2022-10-23T14:51:30.177Z,18.20
2022-10-23T14:54:01.533Z,18.20
2022-10-23T14:56:30.596Z,18.20
2022-10-23T14:59:02.746Z,18.20
2022-10-23T15:01:32.160Z,18.20
2022-10-23T15:03:59.928Z,18.20
2022-10-23T15:06:27.497Z,18.10
2022-10-23T15:08:55.699Z,18.10
2022-10-23T15:11:24.566Z,18.00
2022-10-23T15:13:54.709Z,18.00
2022-10-23T15:16:23.436Z,18.00
2022-10-23T15:18:51.355Z,18.00
2022-10-23T15:21:19.210Z,18.00
2022-10-23T15:23:47.254Z,18.00
2022-10-23T15:26:21.873Z,18.00
2022-10-23T15:28:58.279Z,18.00
2022-10-23T15:31:37.869Z,18.00
2022-10-23T15:34:06.432Z,18.00
2022-10-23T15:36:34.368Z,18.00
2022-10-23T15:39:02.314Z,18.00
2022-10-23T15:41:31.882Z,17.90
2022-10-23T15:44:00.944Z,17.90
2022-10-23T15:46:29.011Z,17.80
2022-10-23T15:48:56.991Z,17.80
2022-10-23T15:51:24.424Z,17.70
2022-10-23T15:53:52.385Z,17.70
2022-10-23T15:56:19.830Z,17.60
2022-10-23T15:58:47.289Z,17.60
2022-10-23T16:01:16.114Z,17.60
2022-10-23T16:03:43.947Z,17.50
2022-10-23T16:06:13.691Z,17.50
2022-10-23T16:08:41.244Z,17.50
2022-10-23T16:11:22.056Z,17.50
2022-10-23T16:13:49.773Z,17.50
2022-10-23T16:16:18.531Z,17.50
2022-10-23T16:18:46.595Z,17.50
2022-10-23T16:21:23.180Z,17.50
2022-10-23T16:23:52.149Z,16.90
2022-10-23T16:26:20.171Z,15.70
2022-10-23T16:28:48.157Z,14.80
2022-10-23T16:31:20.317Z,14.00
2022-10-23T16:33:49.185Z,13.50
2022-10-23T16:36:17.726Z,13.30
2022-10-23T16:38:45.104Z,13.20
2022-10-23T16:41:12.479Z,13.20
2022-10-23T16:43:40.136Z,13.10
2022-10-23T16:46:17.336Z,13.20
2022-10-23T16:48:45.440Z,13.10
2022-10-23T16:51:15.420Z,13.00
2022-10-23T16:53:44.130Z,13.00
2022-10-23T16:56:13.320Z,13.00
2022-10-23T16:58:41.578Z,13.00
2022-10-23T17:01:12.060Z,13.00
2022-10-23T17:03:43.197Z,13.00
2022-10-23T17:06:12.948Z,12.90
2022-10-23T17:08:41.263Z,12.90
2022-10-23T17:11:20.800Z,13.00
2022-10-23T17:13:55.727Z,13.00
2022-10-23T17:16:40.281Z,13.00
2022-10-23T17:19:20.627Z,13.10
2022-10-23T17:21:59.131Z,13.10
2022-10-23T17:24:26.750Z,13.10
2022-10-23T17:26:54.748Z,13.20
2022-10-23T17:29:22.306Z,13.20
2022-10-23T17:31:51.090Z,13.20
2022-10-23T17:34:23.072Z,13.20
2022-10-23T17:36:53.310Z,13.30
2022-10-23T17:39:24.287Z,13.30
2022-10-23T17:41:51.775Z,13.40
2022-10-23T17:44:19.170Z,13.40
2022-10-23T17:46:49.284Z,13.50
2022-10-23T17:49:16.607Z,13.50
2022-10-23T17:51:44.059Z,13.50
2022-10-23T17:54:12.230Z,13.50
2022-10-23T17:56:40.743Z,13.50
2022-10-23T17:59:11.852Z,13.50
2022-10-23T18:01:39.810Z,13.50
2022-10-23T18:04:08.230Z,13.50
2022-10-23T18:06:41.024Z,13.50
2022-10-23T18:09:08.481Z,13.50
2022-10-23T18:11:38.376Z,13.50
2022-10-23T18:14:06.490Z,13.50
2022-10-23T18:16:37.204Z,13.50
2022-10-23T18:19:04.645Z,13.50
2022-10-23T18:21:32.291Z,13.50
2022-10-23T18:24:00.542Z,13.60
2022-10-23T18:26:30.799Z,13.50
2022-10-23T18:28:59.517Z,13.60
2022-10-23T18:31:30.206Z,13.60
2022-10-23T18:33:58.792Z,13.50
2022-10-23T18:36:28.964Z,13.60
2022-10-23T18:38:56.667Z,13.60
2022-10-23T18:41:24.389Z,13.60
2022-10-23T18:43:52.466Z,13.70
2022-10-23T18:46:21.095Z,13.70
2022-10-23T18:48:50.893Z,13.70
2022-10-23T18:51:27.529Z,13.70
2022-10-23T18:53:57.005Z,13.70
2022-10-23T18:56:26.758Z,13.70
2022-10-23T18:58:56.536Z,13.70
2022-10-23T19:01:26.989Z,13.80
2022-10-23T19:06:30.437Z,13.70
2022-10-23T19:08:58.947Z,13.80
2022-10-23T19:11:28.670Z,13.80
2022-10-23T19:13:56.258Z,13.80
2022-10-23T19:16:32.773Z,13.80
2022-10-23T19:19:05.492Z,13.80
2022-10-23T19:21:37.047Z,13.80
2022-10-23T19:24:17.499Z,13.80
2022-10-23T19:26:45.116Z,13.90
2022-10-23T19:29:17.043Z,13.90
2022-10-23T19:31:49.131Z,13.90
2022-10-23T19:34:19.970Z,13.90
2022-10-23T19:36:48.855Z,13.80
2022-10-23T19:39:16.919Z,13.90
2022-10-23T19:41:45.200Z,13.90
2022-10-23T19:44:14.473Z,13.90
2022-10-23T19:46:41.856Z,13.90
2022-10-23T19:49:09.874Z,13.90
2022-10-23T19:51:38.192Z,14.00
2022-10-23T19:54:06.390Z,13.90
2022-10-23T19:56:33.826Z,13.90
2022-10-23T19:59:01.167Z,14.00
2022-10-23T20:01:28.802Z,14.00
2022-10-23T20:03:56.804Z,14.00
2022-10-23T20:06:27.370Z,14.00
2022-10-23T20:08:54.876Z,14.00
2022-10-23T20:11:25.497Z,14.00
2022-10-23T20:13:52.957Z,14.00
2022-10-23T20:16:25.846Z,14.00
2022-10-23T20:18:53.504Z,14.00
2022-10-23T20:21:20.984Z,14.00
2022-10-23T20:23:48.681Z,14.00
2022-10-23T20:26:21.873Z,14.10
2022-10-23T20:28:52.988Z,14.00
2022-10-23T20:31:22.349Z,14.00
2022-10-23T20:33:50.269Z,14.00
2022-10-23T20:36:30.086Z,14.10
2022-10-23T20:38:59.778Z,14.10
2022-10-23T20:41:29.057Z,14.10
2022-10-23T20:43:56.670Z,14.10
2022-10-23T20:46:24.372Z,14.00
2022-10-23T20:48:52.242Z,14.00
2022-10-23T20:51:21.779Z,14.00
2022-10-23T20:53:49.806Z,14.00
2022-10-23T20:56:24.199Z,14.00
2022-10-23T20:58:51.543Z,13.90
2022-10-23T21:01:19.352Z,13.90
2022-10-23T21:03:51.324Z,14.00
2022-10-23T21:06:20.054Z,13.90
2022-10-23T21:08:47.560Z,13.90
2022-10-23T21:11:17.284Z,13.90
2022-10-23T21:13:45.527Z,13.80
2022-10-23T21:16:23.548Z,13.80
2022-10-23T21:18:52.353Z,13.80
2022-10-23T21:21:20.959Z,13.80
2022-10-23T21:23:51.329Z,13.80
2022-10-23T21:26:21.146Z,13.80
2022-10-23T21:29:00.900Z,13.80
2022-10-23T21:31:34.459Z,13.90
2022-10-23T21:34:01.971Z,13.80
2022-10-23T21:36:31.012Z,13.70
2022-10-23T21:39:01.594Z,13.60
2022-10-23T21:41:33.665Z,13.40
2022-10-23T21:44:04.162Z,13.20
2022-10-23T21:46:33.868Z,13.20
2022-10-23T21:49:01.653Z,13.10
2022-10-23T21:51:37.096Z,13.20
2022-10-23T21:54:06.008Z,13.20
2022-10-23T21:56:45.418Z,13.20
2022-10-23T21:59:15.516Z,13.20
2022-10-23T22:01:45.354Z,13.20
2022-10-23T22:04:14.437Z,13.20
2022-10-23T22:06:43.232Z,13.20
2022-10-23T22:09:13.817Z,13.20
2022-10-23T22:11:41.765Z,13.30
2022-10-23T22:14:09.357Z,13.20
2022-10-23T22:16:36.900Z,13.20
2022-10-23T22:19:04.454Z,13.30
2022-10-23T22:21:32.568Z,13.20
2022-10-23T22:24:01.168Z,13.30
2022-10-23T22:26:36.953Z,13.30
2022-10-23T22:29:07.768Z,13.30
2022-10-23T22:31:36.328Z,13.30
2022-10-23T22:34:18.619Z,13.30
2022-10-23T22:36:54.647Z,13.30
2022-10-23T22:39:23.171Z,13.30
2022-10-23T22:41:53.386Z,13.40
2022-10-23T22:44:20.795Z,13.40
2022-10-23T22:46:48.245Z,13.50
2022-10-23T22:49:15.806Z,13.50
2022-10-23T22:51:43.209Z,13.50
2022-10-23T22:54:10.605Z,13.50
2022-10-23T22:56:38.049Z,13.50
2022-10-23T22:59:05.479Z,13.50
2022-10-23T23:01:42.224Z,13.50
2022-10-23T23:04:19.798Z,13.60
2022-10-23T23:06:59.830Z,13.60
2022-10-23T23:09:27.180Z,13.60
2022-10-23T23:11:54.542Z,13.60
2022-10-23T23:14:23.835Z,13.50
2022-10-23T23:16:53.036Z,13.60
2022-10-23T23:19:22.920Z,13.50
2022-10-23T23:21:50.853Z,13.50
2022-10-23T23:24:18.198Z,13.50
2022-10-23T23:26:45.549Z,13.40
2022-10-23T23:29:13.119Z,13.40
2022-10-23T23:31:40.880Z,13.40
2022-10-23T23:34:08.335Z,13.40
2022-10-23T23:36:36.175Z,13.40
2022-10-23T23:41:36.144Z,13.40
2022-10-23T23:44:03.594Z,13.40
2022-10-23T23:46:30.949Z,13.40
2022-10-23T23:48:58.310Z,13.50
2022-10-23T23:51:25.986Z,13.50
2022-10-23T23:53:53.621Z,13.50
2022-10-23T23:56:21.815Z,13.50
2022-10-23T23:58:49.201Z,13.50
